ABOUT NICE WORK | WORK FOR US | SUBSCRIBE
01797 229955

Results Archive

The Bedgebury Forest Half Marathon & 10k 2019

Race Results

Pos Gun Time Chip Time Name Club Gender Category Race No. Gen. Pos Cat. Pos
1 00:38:15 00:38:15 David Ives Sevenoaks Ac M Male Vet 40 522 1 1
2 00:38:51 00:38:51 Andy Stevens Thanet Roadrunners Ac M Male Vet 45 723 2 1
3 00:40:16 00:40:15 Vic Weinberg Coretriathlon M Male Vet 40 564 3 2
4 00:41:05 00:41:05 Joe Russell M Senior Male 626 4 1
5 00:42:06 00:42:06 John Rogers M Senior Male 600 5 2
6 00:42:08 00:42:07 Warren Clark M Senior Male 713 6 3
7 00:42:12 00:42:08 Themba Wardle M Junior Male 710 7 1
8 00:45:37 00:45:24 James Davis M Senior Male 541 8 4
9 00:45:56 00:45:12 Alex Hoss M Senior Male 688 9 5
10 00:46:43 00:46:09 Henry Hand M Senior Male 705 10 6
11 00:47:28 00:47:22 Claire Pluckrose Canterbury Harriers F Female Vet 50 678 1 1
12 00:47:51 00:47:37 Michael Walsh M Senior Male 656 11 7
13 00:48:00 00:48:00 Joey Chasseaud Ashford Triathlon Club M Senior Male 638 12 8
14 00:48:14 00:48:13 Christine Anthony West Suffolk Ac F Female Vet 55 585 2 1
15 00:49:37 00:49:16 Guy Barton M Male Vet 45 681 13 2
16 00:50:29 00:50:28 Chris Castleman M Male Vet 55 776 14 1
17 00:50:51 00:50:45 Mark Wardle M Male Vet 55 709 15 2
18 00:51:17 00:51:15 Neil Trett Folkestone Running Club M Male Vet 40 664 16 3
19 00:51:31 00:51:22 Jenny Wilton Ashford Ac F Female Vet 45 757 3 1
20 00:51:49 00:51:40 Nick Brown M Male Vet 40 510 17 4
21 00:51:53 00:51:52 Stuart Emmerson M Senior Male 714 18 9
22 00:52:00 00:51:16 Philip Russell M Senior Male 449 19 10
23 00:52:15 00:52:12 Richard Cole M Male Vet 45 764 20 3
24 00:52:21 00:52:07 William Phillimore M Senior Male 578 21 11
25 00:52:55 00:52:53 Kate Catt F Female Vet 40 756 4 1
26 00:53:20 00:52:34 Jon Cork M Senior Male 774 22 12
27 00:53:23 00:53:06 Robert Everitt M Male Vet 45 767 23 4
28 00:53:30 00:53:26 Robert Clay M Senior Male 668 24 13
29 00:53:42 00:52:55 Neil Porter M Senior Male 661 25 14
30 00:53:45 00:53:11 Will Carpenter M Junior Male 667 26 2
31 00:53:45 00:53:12 Thomss Carpenter M Junior Male 666 27 3
32 00:53:48 00:53:27 Susan Crowe F Female Vet 50 604 5 2
33 00:53:49 00:53:33 Sarah Lofts F Senior Female 597 6 1
34 00:53:51 00:53:43 Nicholas Dewar M Male Vet 45 763 28 5
35 00:53:54 00:53:22 Cassie Benson F Senior Female 671 7 2
36 00:53:57 00:53:40 Nicholas Smith Larkfield Athletics Club M Male Vet 45 769 29 6
37 00:54:07 00:53:44 Jade Wilkinson F Senior Female 694 8 3
38 00:54:13 00:53:55 Liam Gent M Senior Male 622 30 15
39 00:54:44 00:53:41 Colin Fernandez-Grant M Male Vet 45 501 31 7
40 00:54:44 00:53:42 Catriona Stringer F Female Vet 45 502 9 2
41 00:54:55 00:54:35 Alice Marchant F Senior Female 545 10 4
42 00:55:05 00:54:31 Juliet Ryan F Female Vet 45 583 11 3
43 00:55:08 00:54:15 Jojo Van Heerden Tri Tempo Eastbourne F Female Vet 45 621 12 4
44 00:55:10 00:54:52 Emily Brice F Female Vet 35 586 13 1
45 00:55:14 00:55:01 Chris Davis M Male Vet 55 539 32 3
46 00:55:25 00:55:08 Phillip Whitehead M Male Vet 40 758 33 5
47 00:55:28 00:55:19 Jennifer Mouzer F Female Vet 40 762 14 2
48 00:55:46 00:55:25 Tim Glasspool M Senior Male 605 34 16
49 00:55:55 00:55:41 Stephen Divers Lancing Eagles M Male Vet 40 43 35 6
50 00:56:02 00:55:53 Robert Mouzer M Male Vet 65 525 36 1
51 00:56:20 00:55:46 Robert Smith M Senior Male 669 37 17
52 00:56:32 00:55:51 Liam Skelton M Senior Male 728 38 18
53 00:56:36 00:56:06 Lizzy Brama Crystal Palace Triathletes F Female Vet 35 563 15 2
54 00:56:50 00:56:15 Graeme Carpenter M Male Vet 50 665 39 1
55 00:57:03 00:56:38 Lindsey Cane F Female Vet 40 637 16 3
56 00:57:15 00:57:00 Maria Gandara Tunbridge Wells Harriers F Female Vet 50 544 17 3
57 00:57:21 00:56:58 Rebecca Smith Wadhurst Runners F Female Vet 45 56 18 5
58 00:57:29 00:57:02 Kevin Webb M Male Vet 55 409 40 4
59 00:57:35 00:56:38 Linda Redden F Female Vet 55 771 19 2
60 00:57:44 00:57:23 Ben Barton M Junior Male 680 41 4
61 00:58:05 00:58:01 Andrew Parkin M Male Vet 55 741 42 5
62 00:58:06 00:57:07 Tony Kirkup M Male Vet 45 745 43 8
63 00:58:26 00:57:56 Matthew Dean M Male Vet 45 632 44 9
64 00:58:35 00:58:19 Paul Johnston M Male Vet 45 595 45 10
65 00:58:46 00:58:29 Eleanor Aspinall F Female Vet 40 565 20 4
66 00:58:49 00:58:33 Cara Gregory F Female Vet 35 536 21 3
67 00:58:49 00:58:08 Steven Keable M Male Vet 40 725 46 7
68 00:58:49 00:58:06 Abigail Langley F Senior Female 689 22 5
69 00:58:50 00:58:26 Nick Stacey M Senior Male 612 47 19
70 00:59:00 00:58:28 Iain Scott M Senior Male 708 48 20
71 00:59:01 00:58:19 Sanjay Lal M Male Vet 45 672 49 11
72 00:59:11 00:58:35 Ben Copley M Male Vet 45 704 50 12
73 00:59:21 00:58:58 Jana Diedrick F Senior Female 695 23 6
74 00:59:22 00:58:58 Maxwell Oakes M Senior Male 699 51 21
75 00:59:24 00:59:03 David Jackson M Male Vet 45 594 52 13
76 00:59:29 00:58:28 Leah Smith F Female Vet 35 630 24 4
77 00:59:43 00:59:26 Martin Lewis M Male Vet 45 152 53 14
78 00:59:51 00:59:23 Lauren Mcbride F Senior Female 617 25 7
79 01:00:00 00:59:37 Sara Hunt F Female Vet 45 696 26 6
80 01:00:00 00:59:12 Sean Dawson M Senior Male 778 54 22
81 01:00:08 00:59:31 Louis Strover Kent Ac M Male Vet 50 620 55 2
82 01:00:09 00:59:24 Tom Robinson M Senior Male 779 56 23
83 01:00:22 00:59:58 James Smith M Male Vet 40 611 57 8
84 01:00:31 00:59:59 Jill Young Medway And Maidstone Ac F Female Vet 45 591 27 7
85 01:00:39 01:00:27 Beth Pierson-Smith F Female Vet 35 613 28 5
86 01:00:51 01:00:06 Peter Hopkisson M Male Vet 50 644 58 3
87 01:00:51 01:00:21 Juliet Glanfield F Female Vet 45 768 29 8
88 01:00:54 01:00:32 Sam Roberts M Male Vet 45 609 59 15
89 01:01:00 01:00:17 Michaela Vincent F Female Vet 35 418 30 6
90 01:01:03 01:00:42 Sin‚ad Everarx M Senior Male 640 60 24
91 01:01:04 01:00:42 Jayna Marsh F Senior Female 647 31 8
92 01:01:23 01:01:07 Maria Stevens F Female Vet 40 601 32 5
93 01:01:42 01:01:11 Marc Roberts M Senior Male 558 61 25
94 01:01:42 01:01:12 Bryan Wilson M Male Vet 45 555 62 16
95 01:01:43 01:01:43 Louise Johnson Greenwich Tritons F Female Vet 50 14 33 4
96 01:01:47 01:01:19 Ben Howe Swanley & District Ac M Junior Male 574 63 5
97 01:02:25 01:02:15 Gordon Steadwood Ashford Ac M Male Vet 55 614 64 6
98 01:03:09 01:02:13 Tracey Foster F Female Vet 55 748 34 3
99 01:03:24 01:03:03 Sarah Reeves F Female Vet 40 662 35 6
100 01:03:29 01:03:21 Davina Piper F Female Vet 40 700 36 7
101 01:03:30 01:03:19 Sophie Pugh F Female Vet 35 720 37 7
102 01:03:34 01:02:54 Rachel Britt F Female Vet 35 676 38 8
103 01:03:42 01:02:53 Donna Sellar F Female Vet 50 759 39 5
104 01:03:58 01:03:11 Jack Lynch M Senior Male 659 65 26
105 01:04:04 01:03:27 Jamie Woodger M Senior Male 761 66 27
106 01:04:04 01:03:28 Gabriella Swart F Senior Female 760 40 9
107 01:04:07 01:03:03 Claire Wright F Female Vet 55 505 41 4
108 01:04:15 01:03:46 Mo O'brien F Female Vet 45 765 42 9
109 01:04:16 01:03:33 Scott Hahnefeld Lonely Goat Running Club M Male Vet 40 593 67 9
110 01:04:16 01:03:47 Vanya Sharp F Female Vet 40 766 43 8
111 01:04:30 01:03:28 Matthew Moat M Senior Male 623 68 28
112 01:04:43 01:03:52 Sonia Edmondson F Senior Female 734 44 10
113 01:04:45 01:04:01 Giles Paley-Phillips M Male Vet 40 618 69 10
114 01:04:46 01:04:01 Keith Shattock M Male Vet 45 737 70 17
115 01:04:46 01:04:02 David Loader M Male Vet 45 646 71 18
116 01:04:46 01:04:02 David Shattock M Male Vet 40 619 72 11
117 01:04:51 01:04:07 Alex Prentis M Junior Male 701 73 6
118 01:04:54 01:04:07 Lisa Goad F Female Vet 35 717 45 9
119 01:04:58 01:04:33 Jessica Gillespie F Senior Female 692 46 11
120 01:04:58 01:03:53 Fraser Mckie M Male Vet 50 115 74 4
121 01:05:17 01:04:51 Kirsten Mills F Female Vet 45 777 47 10
122 01:05:25 01:04:39 Sarah Cullingham F Senior Female 743 48 12
123 01:05:39 01:04:42 Mandie Atkinson F Female Vet 40 674 49 9
124 01:05:48 01:05:44 Christopher Filmer M Male Vet 45 548 75 19
125 01:05:48 01:05:44 Jenny Luke F Female Vet 40 549 50 10
126 01:05:54 01:04:54 Emily Lonsdale F Senior Female 607 51 13
127 01:05:55 01:04:55 Calin Negroiu M Senior Male 571 76 29
128 01:06:16 01:06:05 Gemma Pearson F Female Vet 40 551 52 11
129 01:06:17 01:06:05 Jill Woodland F Female Vet 40 553 53 12
130 01:06:55 01:05:44 Juliet Brown F Female Vet 45 7 54 11
131 01:06:56 01:06:42 Andrew Harrow M Male Vet 40 587 77 12
132 01:06:59 01:06:17 Julie Jochimsen F Female Vet 45 697 55 12
133 01:07:04 01:06:45 Lucy Mcdaid F Senior Female 648 56 14
134 01:07:15 01:06:56 Anne Wharton Bromley Veterans Ac F Female Vet 55 628 57 5
135 01:07:20 01:06:46 Jane Hand F Female Vet 50 706 58 6
136 01:07:31 01:06:44 Julie Reeves Tri Tempo Eastbourne F Female Vet 35 650 59 10
137 01:07:32 01:07:21 Stacey Loveridge F Female Vet 40 575 60 13
138 01:07:37 01:07:23 Yian Solomon Lancing Eagles F Female Vet 70 40 61 1
139 01:07:38 01:06:52 George Ponsford M Senior Male 770 78 30
140 01:07:46 01:07:01 Kath Barton F Female Vet 40 682 62 14
141 01:07:46 01:07:33 Tina Miller F Female Vet 55 562 63 6
142 01:07:46 01:06:55 Natasha Robinson F Female Vet 35 772 64 11
143 01:07:53 01:07:17 Rob Baker M Male Vet 50 616 79 5
144 01:08:06 01:07:27 Katharine Collis F Female Vet 35 533 65 12
145 01:08:16 01:07:22 Katie Belton F Senior Female 527 66 15
146 01:08:36 01:08:06 Dean Layen M Senior Male 588 80 31
147 01:08:40 01:08:07 Viv Macey F Female Vet 45 577 67 13
148 01:08:46 01:08:01 Debbie Hopkisson F Female Vet 50 643 68 7
149 01:08:46 01:08:02 Jackie Reed F Female Vet 50 703 69 8
150 01:08:47 01:08:03 Ben Reed M Male Vet 50 702 81 6
151 01:08:50 01:08:23 Abbi Collins F Senior Female 592 70 16
152 01:09:01 01:08:32 Malcolm Jones Bexhill Runners & Triathletes M Male Vet 60 596 82 1
153 01:09:04 01:08:39 Lottie Evelyn F Senior Female 639 71 17
154 01:09:17 01:08:50 Marc Price M Male Vet 45 755 83 20
155 01:09:29 01:09:01 Beth Winning F Senior Female 590 72 18
156 01:09:31 01:08:28 Katie Temple F Female Vet 40 635 73 15
157 01:09:31 01:08:29 Joanne Grady F Female Vet 40 633 74 16
158 01:09:43 01:08:41 Katie Stringer F Female Vet 40 627 75 17
159 01:09:47 01:08:55 Clive Richardson M Male Vet 75 529 84 1
160 01:09:48 01:08:56 Emma Richardson F Female Vet 40 526 76 18
161 01:10:06 01:09:06 Grace Gibbens F Junior Female 686 77 1
162 01:11:00 01:10:24 Karen Parris F Female Vet 45 736 78 14
163 01:11:22 01:10:27 Stuart Morris M Male Vet 45 581 85 21
164 01:11:26 01:10:57 Andrew Jones M Male Vet 50 718 86 7
165 01:11:28 01:10:33 Louise Morris F Female Vet 45 580 79 15
166 01:11:30 01:10:28 Katherine Lang F Female Vet 35 655 80 13
167 01:11:33 01:10:50 Shane Brockwell M Senior Male 654 87 32
168 01:11:49 01:11:10 Barbara Pelling F Female Vet 60 625 81 1
169 01:11:49 01:11:10 Barbara Cramp F Female Vet 65 775 82 1
170 01:11:51 01:11:37 Beth Davis F Senior Female 538 83 19
171 01:12:26 01:11:42 James Strange M Senior Male 559 88 33
172 01:12:31 01:11:46 Daniel Harwood M Senior Male 556 89 34
173 01:12:47 01:11:40 Jane Martinson F Female Vet 50 773 84 9
174 01:12:49 01:11:51 Anna Feeney F Female Vet 35 715 85 14
175 01:13:33 01:12:38 Peter Foster Vigo Runners M Male Vet 60 747 90 2
176 01:14:07 01:13:40 Sarah-Louise Bradgate F Female Vet 40 602 86 19
177 01:14:42 01:13:42 Lorraine Gibbens F Female Vet 55 687 87 7
178 01:14:49 01:14:11 Laura Miles F Senior Female 726 88 20
179 01:15:23 01:14:36 Jodie Lulham Heathfield Road Runners F Senior Female 576 89 21
180 01:15:55 01:15:07 Neil Bradford M Male Vet 55 636 91 7
181 01:16:05 01:15:25 Tommy Jackson M Senior Male 658 92 35
182 01:16:12 01:15:45 Joanna Vangucci F Senior Female 579 90 22
183 01:16:21 01:15:39 Wendy Holden F Female Vet 55 707 91 8
184 01:16:21 01:15:40 Clare Watson F Senior Female 711 92 23
185 01:16:39 01:15:45 Denise Tanner F Female Vet 50 519 93 10
186 01:17:01 01:16:04 Ceryl Slasberg Reigate Ladies Joggers F Female Vet 40 729 94 20
187 01:17:28 01:17:17 Izabella Nimat F Senior Female 582 95 24
188 01:17:29 01:17:18 Charlie White M Male Vet 60 584 93 3
189 01:18:02 01:17:43 Lorraine Collins Lancing Eagles F Female Vet 40 518 96 21
190 01:18:06 01:17:47 Lisa Oliver Lancing Eagles F Female Vet 45 324 97 16
191 01:18:35 01:18:05 Alison Smith Larkfield Athletics Club F Female Vet 40 730 98 22
192 01:19:29 01:18:24 Rachel Pickthall F Female Vet 50 528 99 11
193 01:20:42 01:20:30 Tracey Marsden F Female Vet 55 598 100 9
194 01:20:53 01:20:40 Claire Hanks F Female Vet 45 606 101 17
195 01:20:56 01:19:51 Claire Sutton F Female Vet 45 503 102 18
196 01:21:00 01:19:55 Sophie Scott F Female Vet 45 652 103 19
197 01:21:10 01:20:37 Donia Pankhurst F Female Vet 50 649 104 12
198 01:21:12 01:20:18 Constance Stevens F Senior Female 552 105 25
199 01:21:13 01:20:19 Ash Tonks F Senior Female 550 106 26
200 01:21:16 01:20:15 Nicola Moat F Female Vet 35 624 107 15
201 01:21:28 01:20:27 Amy Ely F Female Vet 40 683 108 23
202 01:21:42 01:21:32 Heidi Butterfield F Female Vet 35 631 109 16
203 01:21:43 01:21:33 Kelly Mccann F Female Vet 35 634 110 17
204 01:22:21 01:22:12 Michael Dee Henfield Joggers M Male Vet 75 752 94 2
205 01:24:17 01:23:13 Julie Stallard F Female Vet 45 130 111 20
206 01:24:36 01:24:11 Jade Blackford F Senior Female 731 112 27
207 01:24:36 01:24:11 Sally Webber F Senior Female 733 113 28
208 01:25:48 01:25:32 Ramon Saiz Maidstone Harriers M Male Vet 75 750 95 3
209 01:27:41 01:27:18 Mark Macey M Male Vet 55 603 96 8
210 01:27:46 01:26:59 Emma Killick Plumstead Runners F Female Vet 50 523 114 13
211 01:27:47 01:26:59 Louise Smith Plumstead Runners F Female Vet 45 524 115 21
212 01:36:15 01:35:29 Sara Turner F Female Vet 50 521 116 14
213 01:37:15 01:36:15 Vikki Tottman F Female Vet 50 691 117 15
214 01:40:43 01:39:45 Jo Sillitoe F Female Vet 55 679 118 10
215 01:40:43 01:39:43 Esther Caruso F Female Vet 45 753 119 22
216 01:40:44 01:39:44 Sarah Stirrup F Female Vet 50 746 120 16
217 01:43:06 01:42:41 Sue Mutters Lancing Eagles F Female Vet 50 517 121 17
218 01:57:30 01:56:51 Adrien Leger M Senior Male 531 97 36
219 01:58:00 01:57:28 Cynthia Dee Henfield Joggers F Female Vet 70 751 122 2
Pos Gun Time Chip Time Name Club Gender Category Race No. Gen. Pos Cat. Pos
1 01:25:18 01:25:18 Cole Gibbons Invicta East Kent AC M Junior Male 430 1 1
2 01:27:44 01:27:44 Lee Cooper Larkfield Athletics Club M Senior Male 313 2 1
3 01:33:45 01:33:45 Cameron Chambers M Senior Male 297 3 2
4 01:34:44 01:33:54 Daniel O'connell M Male Vet 40 350 4 1
5 01:35:10 01:35:10 Andrea Berquez F Senior Female 414 1 1
6 01:35:16 01:35:14 David Hadaway Tunbridge Wells Harriers M Male Vet 50 344 5 1
7 01:35:40 01:35:39 John Lovegrove Harvel Hash House Harriers M Male Vet 40 275 6 2
8 01:35:45 01:35:43 Jack Parr M Senior Male 283 7 3
9 01:38:21 01:38:05 Tom Evans M Male Vet 40 441 8 3
10 01:38:34 01:38:27 Paul Ramsier South London Harriers M Male Vet 55 222 9 1
11 01:39:25 01:39:21 Liam Barford M Senior Male 373 10 4
12 01:39:32 01:39:11 Craig Barden M Senior Male 280 11 5
13 01:39:58 01:39:58 Mark Shepherd M Senior Male 243 12 6
14 01:40:46 01:40:44 Robert Geaney M Senior Male 342 13 7
15 01:40:53 01:40:51 Yvette Dore Dulwich Runners Ac F Female Vet 45 126 2 1
16 01:41:05 01:40:47 David Fitzgerald Lonely Goat Running Club M Senior Male 103 14 8
17 01:41:49 01:41:24 Michael Carney M Senior Male 378 15 9
18 01:42:30 01:42:20 Toby Short Harvel Hash House Harriers M Male Vet 40 279 16 4
19 01:42:32 01:42:11 Alistair Montague M Male Vet 40 168 17 5
20 01:42:44 01:42:23 Jack Barden M Senior Male 366 18 10
21 01:42:52 01:42:39 Christopher Walmsley Tunbridge Wells Harriers M Male Vet 45 34 19 1
22 01:43:05 01:42:42 Mark Wyldbore Wadhurst Runners M Male Vet 45 58 20 2
23 01:43:15 01:43:07 Matthew Badham M Senior Male 352 21 11
24 01:43:28 01:43:25 Michelle Lennon Dulwich Runners Ac F Female Vet 50 83 3 1
25 01:43:34 01:43:02 Mr O'shea Faversham Running Club M Male Vet 45 104 22 3
26 01:43:37 01:43:29 James Jarvis Deal Triathlon Club M Male Vet 40 306 23 6
27 01:43:56 01:43:51 Matthew Brewis M Senior Male 102 24 12
28 01:44:42 01:43:35 James Ward Lingfield Rc M Senior Male 270 25 13
29 01:44:50 01:43:58 Jordan Sims M Senior Male 188 26 14
30 01:45:30 01:45:29 Vera Hunter Maidstone Harriers F Female Vet 35 217 4 1
31 01:45:34 01:44:57 Chris Hawkes M Senior Male 429 27 15
32 01:45:36 01:44:48 Neal Abbott M Senior Male 388 28 16
33 01:45:37 01:45:34 Emma Ibell Dulwich Runners Ac F Female Vet 45 82 5 2
34 01:45:49 01:45:41 Richard Bruce M Senior Male 204 29 17
35 01:45:53 01:45:34 Kevin Austen M Male Vet 50 426 30 2
36 01:46:17 01:46:11 Andrew Swindles Wadhurst Runners M Senior Male 77 31 18
37 01:46:27 01:46:27 Linda-Jean Delport Ashford & District Rrc F Female Vet 45 395 6 3
38 01:46:38 01:46:13 Ali Denman M Male Vet 40 379 32 7
39 01:46:42 01:46:40 Daniel Catt Clapham Chasers M Male Vet 45 408 33 4
40 01:47:04 01:46:27 Glen Selby M Male Vet 45 392 34 5
41 01:47:36 01:47:24 David Suddes Tonbridge Ac M Male Vet 40 231 35 8
42 01:47:59 01:47:54 Georgina Frowde Crowborough Runners F Female Vet 35 156 7 2
43 01:48:20 01:48:00 Alistair Love Orpington Road Runners M Senior Male 447 36 19
44 01:48:58 01:48:55 Laura Archer F Senior Female 35 8 2
45 01:50:05 01:49:57 Gemma Marshall Runhead Ac F Female Vet 40 200 9 1
46 01:50:05 01:49:50 Alex Mcnicol M Male Vet 40 309 37 9
47 01:50:11 01:49:45 Andy Holmes M Senior Male 402 38 20
48 01:50:20 01:50:18 Annabel Preston Weald Tri Club F Female Vet 45 269 10 4
49 01:50:25 01:49:50 Michael Saunders Horsham Joggers M Male Vet 55 294 39 2
50 01:50:31 01:50:24 Martin Salmon Hawkinge Hurricanes Running Club M Male Vet 50 75 40 3
51 01:50:41 01:50:31 Lewis Pethig M Senior Male 445 41 21
52 01:50:46 01:50:11 Martyn Frewer M Male Vet 50 199 42 4
53 01:50:49 01:50:45 Sharon Barnett Maidstone Harriers F Female Vet 45 367 11 5
54 01:50:49 01:50:15 Andy Sharp M Male Vet 50 89 43 5
55 01:51:07 01:50:23 Geraint Davies Oxted Runners M Senior Male 363 44 22
56 01:51:18 01:51:06 Paul Miller Nej Running Club M Male Vet 40 365 45 10
57 01:51:28 01:51:17 Tim Schooley M Male Vet 45 371 46 6
58 01:51:29 01:51:19 Trevor Briggs M Male Vet 45 359 47 7
59 01:51:31 01:51:06 Andrew Jex M Male Vet 45 36 48 8
60 01:51:42 01:51:40 Stewart Gasson Uckfield Runners M Male Vet 40 412 49 11
61 01:51:57 01:51:35 Paul Willis M Male Vet 55 403 50 3
62 01:51:57 01:51:35 Ben Turner M Male Vet 40 404 51 12
63 01:52:07 01:51:47 Anna Louis F Female Vet 50 308 12 2
64 01:52:07 01:52:05 Anna Thomsen F Senior Female 128 13 3
65 01:52:12 01:51:37 Patrick Duggan M Senior Male 117 52 23
66 01:52:16 01:52:13 Duncan Taylor Lonely Goat Running Club M Male Vet 45 334 53 9
67 01:52:19 01:52:13 Jamie Woolgar M Senior Male 246 54 24
68 01:52:22 01:52:17 Nick Chivers M Male Vet 45 254 55 10
69 01:52:28 01:52:09 David James M Senior Male 345 56 25
70 01:52:34 01:52:21 Tim Wooff M Male Vet 50 17 57 6
71 01:52:40 01:52:18 Steve Roberts M Male Vet 45 242 58 11
72 01:52:54 01:52:38 David Stacey M Male Vet 60 244 59 1
73 01:52:57 01:52:50 Ben Leonard M Senior Male 179 60 26
74 01:53:15 01:53:11 Andrew Duff-Miller M Male Vet 50 141 61 7
75 01:53:22 01:52:41 Rob Naybour Kent Ac M Male Vet 55 444 62 4
76 01:53:37 01:52:39 Keir Rason Orpington Road Runners M Male Vet 45 284 63 12
77 01:53:40 01:53:09 John Barnes M Senior Male 164 64 27
78 01:54:22 01:53:21 Robin Hall M Male Vet 40 249 65 13
79 01:54:22 01:53:21 Richard Cooper M Male Vet 40 326 66 14
80 01:54:41 01:54:38 Sarah Young Kent Ac F Female Vet 50 411 14 3
81 01:54:44 01:54:08 Nick Farrant Larkfield Athletics Club M Male Vet 40 282 67 15
82 01:54:49 01:54:15 Michael Allen Sevenoaks Ac M Male Vet 40 78 68 16
83 01:54:52 01:54:32 Laura Marshall Croydon Harriers F Female Vet 45 370 15 6
84 01:54:56 01:54:17 James Wade M Male Vet 40 390 69 17
85 01:55:11 01:54:31 Richard Cherriman Horsham Joggers M Male Vet 55 298 70 5
86 01:55:15 01:54:56 Martine Mildon F Senior Female 348 16 4
87 01:55:21 01:55:11 Katherine James F Female Vet 35 364 17 3
88 01:55:39 01:55:02 Gary Taylor M Male Vet 50 218 71 8
89 01:55:53 01:55:44 James Godden M Senior Male 205 72 28
90 01:56:01 01:55:30 Ian James M Senior Male 274 73 29
91 01:56:35 01:56:06 Simon Livesey M Senior Male 301 74 30
92 01:56:37 01:56:09 Louisa Whale F Female Vet 40 173 18 2
93 01:56:50 01:56:14 Russell Alexander M Male Vet 40 389 75 18
94 01:56:55 01:56:47 Jamie Birdsey M Senior Male 265 76 31
95 01:57:26 01:57:14 Louise Hazelton Tunbridge Wells Harriers F Female Vet 45 419 19 7
96 01:57:29 01:56:50 Melanie Bruneau F Senior Female 440 20 5
97 01:57:32 01:56:39 George Waldrum M Male Vet 40 251 77 19
98 01:57:46 01:57:12 William Dawes M Male Vet 45 147 78 13
99 01:57:47 01:57:43 Adam Marlow Wadhurst Runners M Male Vet 40 276 79 20
100 01:58:00 01:57:37 Claudia Koch F Female Vet 35 420 21 4
101 01:58:00 01:57:47 Ben Aspland Maidstone Harriers M Male Vet 45 285 80 14
102 01:58:06 01:57:58 Lisa Bowring Harvel Hash House Harriers F Female Vet 50 68 22 4
103 01:59:03 01:58:51 Daniel James M Senior Male 21 81 32
104 01:59:11 01:59:04 Jason White M Senior Male 224 82 33
105 01:59:26 01:58:46 Julian Gaynor M Senior Male 67 83 34
106 01:59:35 01:58:51 John Warren M Male Vet 45 407 84 15
107 01:59:41 01:58:47 Andrew Gibbons Invicta East Kent AC M Male Vet 55 431 85 6
108 02:00:06 01:59:59 Matthew Newman Tunbridge Wells Harriers M Male Vet 40 187 86 21
109 02:00:26 01:59:46 Shaun Kirk M Male Vet 50 346 87 9
110 02:00:34 01:59:58 Sara Terry F Female Vet 50 213 23 5
111 02:00:38 02:00:11 Kristy Tappin F Female Vet 35 410 24 5
112 02:00:51 02:00:02 Mia Sellar F Senior Female 39 25 6
113 02:00:56 02:00:52 Rob Snow M Senior Male 387 88 35
114 02:00:58 02:00:44 Tomas Urbanek M Senior Male 296 89 36
115 02:01:05 02:01:01 Tim Veysey-Smith M Male Vet 55 149 90 7
116 02:01:10 02:00:21 Ian Hossick M Senior Male 206 91 37
117 02:01:22 02:00:48 Stephen Entecott Horsham Joggers M Male Vet 60 328 92 2
118 02:01:23 02:01:05 Harriet Mcmahon F Senior Female 316 26 7
119 02:01:26 02:01:05 Steve Leach M Male Vet 45 398 93 16
120 02:01:31 02:01:02 Louise Holden Larkfield Athletics Club F Female Vet 35 272 27 6
121 02:01:32 02:01:03 Deniz Mehmed Blackheath & Bromley Harriers Ac M Male Vet 55 277 94 8
122 02:01:36 02:01:21 Chris Harket M Male Vet 50 289 95 10
123 02:01:51 02:01:01 Neil Relph M Senior Male 208 96 38
124 02:02:26 02:02:16 Kate Barrett Harvel Hash House Harriers F Female Vet 45 286 28 8
125 02:02:28 02:02:22 James Thain M Senior Male 245 97 39
126 02:02:36 02:02:10 Ingvild Drake Ashford & District Rrc F Female Vet 45 121 29 9
127 02:02:44 02:02:15 Jane Molton F Female Vet 45 133 30 10
128 02:02:52 02:02:43 Claire Green F Female Vet 35 148 31 7
129 02:03:11 02:02:46 Andrew Binnendijk M Male Vet 45 176 98 17
130 02:03:16 02:03:16 Anna Delis F Female Vet 35 198 32 8
131 02:03:16 02:02:42 Tim Mulvenna M Male Vet 45 233 99 18
132 02:03:20 02:03:14 Guillaume Michotte M Male Vet 40 87 100 22
133 02:03:22 02:03:17 Robert Jordan M Male Vet 55 300 101 9
134 02:03:53 02:03:11 Michael Stewart M Senior Male 357 102 40
135 02:03:57 02:03:30 Jane Elcombe Rye Runners F Female Vet 45 396 33 11
136 02:03:59 02:03:51 Sarah Williamson Harvel Hash House Harriers F Female Vet 45 123 34 12
137 02:04:01 02:03:23 Rob Jochimsen Horsham Joggers M Male Vet 55 293 103 10
138 02:04:23 02:04:10 Mike Howells M Male Vet 40 166 104 23
139 02:04:31 02:03:45 Alan Staveley M Male Vet 50 113 105 11
140 02:04:38 02:04:22 Leigh Pullan M Male Vet 40 195 106 24
141 02:04:39 02:04:23 Jon Binney Tri Tempo Eastbourne M Male Vet 40 184 107 25
142 02:05:01 02:04:45 Max Garner M Male Vet 45 227 108 19
143 02:05:16 02:04:38 Derek Buckman Horsham Joggers M Male Vet 60 290 109 3
144 02:05:18 02:04:31 Paul Lovell M Senior Male 386 110 41
145 02:05:21 02:05:18 Sarah Clay F Senior Female 255 35 8
146 02:05:45 02:05:31 Richard Cross Hastings Runners M Male Vet 55 327 111 11
147 02:05:54 02:05:21 Glenn Sillence M Male Vet 55 180 112 12
148 02:06:18 02:06:12 Dan Stronghill M Male Vet 40 15 113 26
149 02:06:24 02:05:33 Kevin Everest M Male Vet 45 369 114 20
150 02:06:33 02:06:22 Andrew Smyth M Male Vet 50 125 115 12
151 02:06:38 02:05:56 Robin Hickson Oxted Runners M Male Vet 55 315 116 13
152 02:06:38 02:06:32 Lyn Stronghill F Female Vet 40 16 36 3
153 02:06:48 02:06:19 Jonathan Molton M Male Vet 50 134 117 13
154 02:07:01 02:06:52 Thomas Leach Harvel Hash House Harriers M Male Vet 55 422 118 14
155 02:07:03 02:06:22 Daniel Marsden M Male Vet 45 92 119 21
156 02:07:15 02:06:58 Matt Payne M Male Vet 40 421 120 27
157 02:07:17 02:06:29 Chris Cooke M Male Vet 45 137 121 22
158 02:07:20 02:06:53 Rich Steele M Senior Male 223 122 42
159 02:07:23 02:06:46 James Stace M Male Vet 50 3 123 14
160 02:07:28 02:06:29 Diana Bryant Orpington Road Runners F Female Vet 40 266 37 4
161 02:07:29 02:07:21 Karen Wisby-Thomas Harvel Hash House Harriers F Female Vet 50 71 38 6
162 02:07:30 02:06:32 Elaine Knight F Female Vet 35 268 39 9
163 02:07:38 02:06:56 Sarah Lockett F Female Vet 45 416 40 13
164 02:07:44 02:06:54 Dee O'hare M Male Vet 50 135 124 15
165 02:07:45 02:07:45 Felicity Butler Meads Runners F Female Vet 40 439 41 5
166 02:07:49 02:06:42 Sarah Bekar F Female Vet 45 190 42 14
167 02:07:58 02:07:19 Emma Comber Horsham Joggers F Female Vet 40 325 43 6
168 02:08:10 02:07:57 Gez Cummins Lancing Eagles M Senior Male 42 125 43
169 02:08:20 02:08:13 Elizabeth Griffin Horsham Joggers F Female Vet 50 259 44 7
170 02:08:32 02:08:21 Nancy Bolgar F Senior Female 64 45 9
171 02:08:42 02:08:20 Mark Mcfloyd M Senior Male 381 126 44
172 02:08:48 02:08:35 Gys Verwey M Senior Male 171 127 45
173 02:08:52 02:08:26 Sadie Gray F Female Vet 45 247 46 15
174 02:09:04 02:08:01 Naomi Rose F Female Vet 35 230 47 10
175 02:09:05 02:08:59 Colin Harris Wadhurst Runners M Male Vet 50 118 128 16
176 02:09:06 02:09:01 Sasha Shaw F Female Vet 35 100 48 11
177 02:09:12 02:09:02 Sue Piper F Female Vet 55 202 49 1
178 02:09:52 02:09:36 Sarah Bendle Hastings Runners F Female Vet 40 79 50 7
179 02:09:52 02:09:36 Hannah Hayler Hastings Runners F Female Vet 40 81 51 8
180 02:10:07 02:09:35 Simon Yeo M Male Vet 50 112 129 17
181 02:10:11 02:09:16 Zoe Fiander Orpington Road Runners F Senior Female 448 52 10
182 02:10:11 02:09:28 Richard Barron Horsham Joggers M Male Vet 60 318 130 4
183 02:10:12 02:09:26 Julie Marchant Vegan Runners Uk F Female Vet 40 221 53 9
184 02:10:19 02:09:46 Ben White M Senior Male 181 131 46
185 02:10:23 02:10:12 Mark Taylor Tunbridge Wells Harriers M Male Vet 65 427 132 1
186 02:10:41 02:10:10 Tom Arnold England M Senior Male 253 133 47
187 02:10:43 02:09:54 Liam Sellar M Male Vet 50 38 134 18
188 02:10:50 02:10:45 Jennifer Hawkes F Senior Female 220 54 11
189 02:11:15 02:10:55 Giles Critchley M Male Vet 50 178 135 19
190 02:11:16 02:10:43 Bianca Sarri F Female Vet 45 264 55 16
191 02:11:23 02:10:40 Penny Barron Horsham Joggers F Female Vet 55 317 56 2
192 02:11:23 02:10:40 Ian Wilcox Horsham Joggers M Male Vet 60 337 136 5
193 02:12:13 02:11:21 Hannah Ungoed-Thomas F Senior Female 335 57 12
194 02:12:17 02:12:11 Cinzia Pickett Wadhurst Runners F Female Vet 45 417 58 17
195 02:12:36 02:11:46 Jamie Vile M Senior Male 358 137 48
196 02:12:37 02:11:46 Jemma Crawford F Female Vet 35 353 59 12
197 02:12:45 02:11:57 David Green M Male Vet 55 69 138 15
198 02:13:26 02:12:34 Justin Dodd M Senior Male 340 139 49
199 02:13:32 02:13:26 Albert Kemp Wadhurst Runners M Male Vet 70 8 140 1
200 02:13:36 02:12:54 Sarah Case F Female Vet 45 394 60 18
201 02:13:49 02:13:23 Mandy Richmond F Female Vet 50 442 61 8
202 02:13:50 02:13:48 Trevor Lee Truro Running Club M Male Vet 55 207 141 16
203 02:14:13 02:14:08 Simon Morley M Male Vet 40 5 142 28
204 02:14:20 02:14:04 Sharon Mchale Lancing Eagles F Female Vet 45 48 62 19
205 02:15:04 02:14:28 Alan Wolfe M Senior Male 183 143 50
206 02:15:15 02:14:31 Ben Vince M Male Vet 40 413 144 29
207 02:15:44 02:15:02 Joseph Moller Lonely Goat Running Club M Male Vet 50 212 145 20
208 02:15:47 02:15:25 Jude Kelly F Female Vet 35 400 63 13
209 02:15:48 02:15:06 Debra Moller F Female Vet 50 211 64 9
210 02:16:01 02:15:22 Stuart Munnings M Male Vet 50 382 146 21
211 02:16:27 02:15:59 Caroline Matthew F Female Vet 50 240 65 10
212 02:16:36 02:16:03 Carl Moore M Male Vet 45 262 147 23
213 02:16:48 02:16:35 James Gill M Senior Male 119 148 51
214 02:17:07 02:16:29 Jane Mctaggart F Female Vet 50 415 66 11
215 02:17:09 02:16:10 Luke Sugrue M Senior Male 333 149 52
216 02:17:30 02:17:25 Kyla Hopkin F Female Vet 50 124 67 12
217 02:17:44 02:17:42 Madeleine Percival F Female Vet 40 356 68 10
218 02:17:44 02:16:56 Coral De Anne F Female Vet 50 339 69 13
219 02:17:56 02:17:46 Keith Tanner Danson Runners M Male Vet 50 57 150 22
220 02:18:49 02:17:58 Elina Marila F Female Vet 50 347 70 14
221 02:19:10 02:18:54 Chris Howe M Senior Male 248 151 53
222 02:19:26 02:18:46 Sylvie Green F Female Vet 55 70 71 3
223 02:19:33 02:18:53 Sean Fassum M Senior Male 214 152 54
224 02:19:42 02:18:47 Emma Pryor F Female Vet 45 203 72 20
225 02:19:49 02:19:33 Anni Heilio F Female Vet 40 260 73 11
226 02:19:55 02:19:15 Jo Fincher Maidstone Harriers F Senior Female 257 74 13
227 02:19:55 02:19:14 Mark Fincher M Senior Male 237 153 55
228 02:20:11 02:19:50 Kristina Harris F Senior Female 219 75 14
229 02:20:37 02:20:09 Mark Jenkins M Senior Male 109 154 56
230 02:20:50 02:20:46 Will Blackwell Lonely Goat Running Club M Male Vet 45 433 155 24
231 02:20:55 02:20:06 Andy Blake Bromley Veterans Ac M Male Vet 45 432 156 25
232 02:21:24 02:20:46 Dee Poole F Female Vet 50 384 76 15
233 02:21:50 02:21:31 Vicky Stevenson Ashford Striders F Female Vet 40 145 77 12
234 02:21:54 02:21:14 William De Haviland-Reid M Senior Male 197 157 57
235 02:22:35 02:21:43 Zoe Cherryman Portslade Hedgehoppers F Female Vet 50 131 78 16
236 02:22:35 02:21:43 Nick Parsons Portslade Hedgehoppers M Male Vet 55 136 158 17
237 02:22:47 02:22:30 Linda Smith F Female Vet 55 28 79 4
238 02:23:02 02:22:19 Tom Nicholson M Senior Male 376 159 58
239 02:23:34 02:23:13 Wayne Apps M Male Vet 40 435 160 30
240 02:23:37 02:22:47 Anna Townsend Runhead Ac F Female Vet 35 146 80 14
241 02:23:47 02:23:33 Simon Moisy M Male Vet 40 424 161 31
242 02:24:19 02:23:50 James Graham M Male Vet 50 239 162 23
243 02:24:35 02:24:04 Stephen Slater Hastings Runners M Male Vet 60 235 163 6
244 02:24:37 02:24:07 Sophie Bailey F Female Vet 40 372 81 13
245 02:25:03 02:23:55 Lesley Felce F Female Vet 40 215 82 14
246 02:25:06 02:23:59 Millie Felce F Female Vet 40 216 83 15
247 02:25:12 02:24:34 Richard Munnings M Male Vet 50 349 164 24
248 02:25:35 02:25:29 Jamie Hitchman M Senior Male 160 165 59
249 02:25:38 02:24:45 Paul Moir Hastings Runners M Male Vet 45 261 166 26
250 02:25:50 02:25:18 Elizabeth Sherwood Wadhurst Runners F Female Vet 45 111 84 21
251 02:25:55 02:25:18 Ian Petts M Male Vet 55 229 167 18
252 02:26:01 02:25:04 Mark Macdonald M Male Vet 40 330 168 32
253 02:26:22 02:25:31 Kerry Lodge F Female Vet 35 375 85 15
254 02:27:01 02:26:05 Kim Harrison F Female Vet 35 153 86 16
255 02:27:10 02:26:16 Victoria Sims F Female Vet 40 189 87 16
256 02:27:10 02:26:43 Cathy Bate Bexhill Runners & Triathletes F Female Vet 60 138 88 1
257 02:27:12 02:26:15 Christine Parsons F Female Vet 40 169 89 17
258 02:27:27 02:27:27 John Dudley M Male Vet 45 72 169 27
259 02:27:36 02:26:53 Pat Sullivan M Male Vet 60 74 170 7
260 02:27:36 02:26:51 Kim Sullivan F Female Vet 55 73 90 5
261 02:28:22 02:27:44 Yvonne Reynard F Female Vet 40 241 91 18
262 02:28:33 02:28:22 Kelvin Hill M Male Vet 50 127 171 25
263 02:28:45 02:28:01 Jane Michotte F Female Vet 40 88 92 19
264 02:30:35 02:30:07 Sally Bryden F Female Vet 50 32 93 17
265 02:31:02 02:29:58 Philippa Ennals F Female Vet 45 281 94 22
266 02:31:07 02:30:58 Kelly Short Harvel Hash House Harriers F Female Vet 40 278 95 20
267 02:31:10 02:30:42 Derick Longley M Male Vet 45 232 172 28
268 02:31:10 02:30:45 Rae Edwards F Female Vet 35 236 96 17
269 02:31:13 02:31:04 Sarah Leach Harvel Hash House Harriers F Female Vet 50 423 97 18
270 02:31:38 02:30:41 Emma Burns F Female Vet 55 368 98 6
271 02:31:44 02:31:27 Sarah Littell F Female Vet 35 228 99 18
272 02:31:51 02:31:26 Julia Darnell F Female Vet 55 256 100 7
273 02:31:57 02:31:08 Karen Pearson F Female Vet 45 302 101 23
274 02:32:02 02:31:03 Alexandra Schmidt F Female Vet 40 12 102 21
275 02:32:13 02:31:47 Judy Binnendijk F Female Vet 45 177 103 24
276 02:32:19 02:31:30 Steve Fox M Male Vet 50 341 173 26
277 02:33:07 02:32:47 Sophie Blackman Uk Run Chat F Female Vet 35 107 104 19
278 02:33:07 02:32:47 Steve Martin Uk Run Chat M Senior Male 110 174 60
279 02:33:25 02:33:08 Karen Keene F Female Vet 40 26 105 22
280 02:33:34 02:33:13 Darren Sandland M Male Vet 45 321 175 29
281 02:33:46 02:32:53 Michelle Fox Hastings Runners F Female Vet 40 258 106 23
282 02:33:54 02:33:36 Kate Westbrook F Female Vet 35 94 107 20
283 02:34:44 02:33:58 Kathrin Hartmann F Senior Female 374 108 15
284 02:34:44 02:33:58 Kirsty Cashman F Senior Female 360 109 16
285 02:34:51 02:33:43 Claire Potter F Female Vet 35 25 110 21
286 02:35:00 02:34:20 Dawn Fassum Maidstone Harriers F Senior Female 329 111 17
287 02:35:00 02:33:57 Aisha Smith F Senior Female 446 112 18
288 02:35:35 02:34:39 Fay Stevensova Polegate Plodders F Female Vet 45 425 113 25
289 02:35:49 02:32:01 Aine Mannion F Female Vet 35 142 114 22
290 02:35:51 02:34:53 Sally Hewitt F Female Vet 45 380 115 26
291 02:37:27 02:36:37 Jo Harding F Female Vet 40 194 116 24
292 02:37:41 02:36:56 Catherine Gilling F Female Vet 60 238 117 2
293 02:37:47 02:37:23 Laura Reading F Female Vet 40 143 118 25
294 02:37:47 02:37:23 Serena Philpott F Female Vet 50 154 119 19
295 02:37:49 02:37:27 Susan Bowes F Female Vet 50 29 120 20
296 02:37:50 02:37:10 Stefhan Lewis Maidstone Harriers M Male Vet 50 355 176 27
297 02:37:50 02:37:10 Tiffany Jenkinson F Female Vet 45 354 121 27
298 02:38:09 02:37:12 Katie Croft F Female Vet 45 437 122 28
299 02:38:38 02:37:56 Jenny Ballueder F Female Vet 35 209 123 23
300 02:38:44 02:38:16 Mark Bryden M Male Vet 50 31 177 28
301 02:39:05 02:38:40 Elspeth Lowe F Female Vet 45 319 124 29
302 02:39:21 02:38:16 Shaun Tomlin M Male Vet 50 295 178 29
303 02:39:40 02:38:35 Tim Carter M Male Vet 50 304 179 30
304 02:39:50 02:39:37 Carol Hayes Crystal Palace Fun Runners F Female Vet 65 405 125 1
305 02:40:50 02:39:43 Kathy Binning F Female Vet 35 59 126 24
306 02:40:50 02:39:43 Mark Binning M Male Vet 40 60 180 33
307 02:41:29 02:40:35 Kevin Smith M Male Vet 40 311 181 34
308 02:42:02 02:41:14 Gwyn Carter Heathfield Road Runners F Female Vet 60 226 127 3
309 02:43:20 02:42:21 Eleanor Evans F Senior Female 155 128 19
310 02:43:49 02:43:35 Stephen Saidu M Male Vet 40 55 182 35
311 02:43:49 02:43:35 Steph Faber F Female Vet 35 54 129 25
312 02:44:05 02:43:08 Lisa Copland F Female Vet 50 305 130 21
313 02:44:24 02:43:27 Priscilla Webster F Female Vet 35 336 131 26
314 02:45:34 02:45:05 Paul James M Senior Male 96 183 61
315 02:46:32 02:45:43 Jane Stephenson F Female Vet 45 351 132 30
316 02:46:40 02:45:51 Greg Guthrie M Male Vet 40 343 184 36
317 02:47:26 02:46:30 Barry Clarke M Male Vet 45 436 185 30
318 02:47:26 02:46:30 Katerina Clarke F Female Vet 45 434 133 31
319 02:47:37 02:47:18 Wendy Giddins Haverhill Runnung Club F Female Vet 35 30 134 27
320 02:47:42 02:47:00 Bernadette Hecht F Female Vet 60 385 135 4
321 02:47:55 02:47:40 Gareth Dewdney Rebel Runners Medway M Male Vet 45 443 186 31
322 02:47:55 02:47:37 Alicia Lilley Dover Roadrunners Ac F Senior Female 114 136 20
323 02:47:56 02:47:38 Julie Forbes F Female Vet 50 65 137 22
324 02:48:16 02:48:09 Ghada Razuki F Female Vet 55 27 138 8
325 02:48:21 02:47:47 Jessie Passmore F Senior Female 170 139 21
326 02:48:24 02:47:25 Joanne Humphrey F Senior Female 162 140 22
327 02:49:28 02:49:10 Sarah Lowden Lancing Eagles F Female Vet 40 323 141 26
328 02:49:44 02:48:36 Jane Tyler F Female Vet 55 122 142 9
329 02:49:49 02:49:25 Elise Ingram F Senior Female 19 143 23
330 02:50:28 02:50:10 Danielle Phillips Lancing Eagles F Female Vet 35 51 144 28
331 02:50:30 02:50:12 Elizabeth Heath Lancing Eagles F Female Vet 45 322 145 32
332 02:51:29 02:50:51 Samantha Difford F Senior Female 397 146 24
333 02:51:57 02:51:18 Katy Bennett F Female Vet 35 406 147 29
334 02:52:21 02:51:28 Eleanor Swaine Hastings Runners F Female Vet 40 105 148 27
335 02:52:21 02:51:28 Kirstie Carlton-Blake Hastings Runners F Female Vet 40 150 149 28
336 02:52:24 02:51:31 Ria Eames F Female Vet 35 172 150 30
337 02:52:41 02:52:28 Viki Garrett Dragons Running Club (Leeds) F Senior Female 288 151 25
338 02:52:52 02:51:54 Ann Cromie F Female Vet 35 362 152 31
339 02:52:56 02:52:08 Gill Boorman Heathfield Road Runners F Female Vet 45 399 153 33
340 02:53:45 02:52:57 Olivia Trimbee F Female Vet 55 250 154 10
341 02:54:39 02:54:19 Sarah Moss F Senior Female 310 155 26
342 02:54:45 02:53:49 Victoria Caglar F Female Vet 35 438 156 32
343 02:54:51 02:54:46 Michelle Smith F Female Vet 40 312 157 29
344 02:57:44 02:57:26 Clair Ramsden Lancing Eagles F Female Vet 35 52 158 33
345 02:57:44 02:57:24 Sue Fallon Lancing Eagles F Female Vet 45 45 159 34
346 02:57:45 02:57:29 Vanessa Green Lancing Eagles F Senior Female 46 160 27
347 02:59:28 02:58:36 Sue Quincey Hastings Runners F Female Vet 50 303 161 23
348 02:59:29 02:58:38 Lee Fox Hastings Runners M Male Vet 40 299 187 37
349 03:03:20 03:02:48 Rachel Luff F Senior Female 86 162 28
350 03:03:20 03:02:50 Ryan Luff M Senior Male 97 188 62
351 03:03:21 03:02:48 Simon Stevens M Senior Male 90 189 63
352 03:03:21 03:02:50 Michael Luff M Male Vet 55 85 190 19
353 03:03:25 03:02:29 Laura Liddle F Female Vet 35 167 163 34
354 03:04:48 03:04:13 Nichola Hardy F Senior Female 291 164 29
355 03:04:49 03:04:14 Carolyn Hartwig F Female Vet 45 292 165 35
356 03:15:03 03:14:32 Valerie Nicolle F Female Vet 45 428 166 36
357 03:18:58 03:18:32 Andrea Fallon Lancing Eagles F Female Vet 45 44 167 37
358 03:18:58 03:18:33 David Mutters Lancing Eagles M Male Vet 60 50 191 8
359 03:18:58 03:18:32 Elaine Rousseau Lancing Eagles F Female Vet 40 53 168 30